createdAt,value
2018-09-21T00:00:30.457Z,21.60
2018-09-21T00:02:59.292Z,21.70
2018-09-21T00:07:56.684Z,21.90
2018-09-21T00:10:25.597Z,21.70
2018-09-21T00:12:54.445Z,21.70
2018-09-21T00:15:23.346Z,21.80
2018-09-21T00:17:52.218Z,21.70
2018-09-21T00:20:21.181Z,21.60
2018-09-21T00:22:50.026Z,21.60
2018-09-21T00:25:18.888Z,21.70
2018-09-21T00:27:47.725Z,21.70
2018-09-21T00:30:16.577Z,21.60
2018-09-21T00:32:45.499Z,21.70
2018-09-21T00:35:14.339Z,21.60
2018-09-21T00:37:43.248Z,21.70
2018-09-21T00:40:12.716Z,21.80
2018-09-21T00:42:41.536Z,21.50
2018-09-21T00:45:10.469Z,21.60
2018-09-21T00:47:39.332Z,21.60
2018-09-21T00:50:08.225Z,21.80
2018-09-21T00:52:37.069Z,21.90
2018-09-21T00:55:06.129Z,22.00
2018-09-21T00:57:34.952Z,21.90
2018-09-21T01:00:03.955Z,21.70
2018-09-21T01:02:32.784Z,21.60
2018-09-21T01:05:01.658Z,21.60
2018-09-21T01:07:30.527Z,21.70
2018-09-21T01:09:59.376Z,21.90
2018-09-21T01:12:28.277Z,21.80
2018-09-21T01:14:57.148Z,21.80
2018-09-21T01:17:26.004Z,21.90
2018-09-21T01:19:55.067Z,22.00
2018-09-21T01:22:23.937Z,22.10
2018-09-21T01:24:52.768Z,21.90
2018-09-21T01:27:21.612Z,22.00
2018-09-21T01:29:50.445Z,22.10
2018-09-21T01:32:19.296Z,22.10
2018-09-21T01:34:48.135Z,22.10
2018-09-21T01:37:17.050Z,22.20
2018-09-21T01:39:45.892Z,22.00
2018-09-21T01:42:14.781Z,21.70
2018-09-21T01:44:43.635Z,21.80
2018-09-21T01:47:12.509Z,21.80
2018-09-21T01:49:41.406Z,21.80
2018-09-21T01:52:10.297Z,21.70
2018-09-21T01:54:39.149Z,21.70
2018-09-21T01:57:08.025Z,21.80
2018-09-21T01:59:36.901Z,21.70
2018-09-21T02:02:05.794Z,21.50
2018-09-21T02:04:39.807Z,21.40
2018-09-21T02:07:10.248Z,21.30
2018-09-21T02:09:39.266Z,21.30
2018-09-21T02:12:08.136Z,21.40
2018-09-21T02:14:36.996Z,21.30
2018-09-21T02:17:05.862Z,21.20
2018-09-21T02:19:34.799Z,21.20
2018-09-21T02:22:03.646Z,21.10
2018-09-21T02:24:32.490Z,21.10
2018-09-21T02:27:01.350Z,21.40
2018-09-21T02:29:30.197Z,21.10
2018-09-21T02:31:59.080Z,21.10
2018-09-21T02:34:27.929Z,21.20
2018-09-21T02:36:56.817Z,21.00
2018-09-21T02:39:25.664Z,21.20
2018-09-21T02:41:54.561Z,21.30
2018-09-21T02:44:23.422Z,21.30
2018-09-21T02:46:52.268Z,21.50
2018-09-21T02:49:21.132Z,21.50
2018-09-21T02:51:50.071Z,21.50
2018-09-21T02:54:18.910Z,21.60
2018-09-21T02:56:47.806Z,21.60
2018-09-21T02:59:16.673Z,21.50
2018-09-21T03:01:45.514Z,21.50
2018-09-21T03:04:14.420Z,21.70
2018-09-21T03:06:43.281Z,21.70
2018-09-21T03:09:12.177Z,21.50
2018-09-21T03:11:41.053Z,21.60
2018-09-21T03:14:09.981Z,21.50
2018-09-21T03:16:38.853Z,21.60
2018-09-21T03:19:07.745Z,21.60
2018-09-21T03:21:36.671Z,21.50
2018-09-21T03:24:05.673Z,21.40
2018-09-21T03:26:35.537Z,21.40
2018-09-21T03:29:04.492Z,21.30
2018-09-21T03:31:33.640Z,21.20
2018-09-21T03:34:02.528Z,21.10
2018-09-21T03:36:31.476Z,21.00
2018-09-21T03:39:00.324Z,21.00
2018-09-21T03:41:29.188Z,20.90
2018-09-21T03:43:58.062Z,20.80
2018-09-21T03:46:26.930Z,20.90
2018-09-21T03:48:55.761Z,21.00
2018-09-21T03:51:24.593Z,21.10
2018-09-21T03:53:53.466Z,20.90
2018-09-21T03:56:22.333Z,21.00
2018-09-21T03:58:51.210Z,20.80
2018-09-21T04:01:20.045Z,21.00
2018-09-21T04:03:48.931Z,21.00
2018-09-21T04:06:17.796Z,20.80
2018-09-21T04:08:46.637Z,20.80
2018-09-21T04:11:15.579Z,20.70
2018-09-21T04:13:44.419Z,20.70
2018-09-21T04:16:13.284Z,20.80
2018-09-21T04:18:42.125Z,20.60
2018-09-21T04:21:12.014Z,20.70
2018-09-21T04:23:40.859Z,20.60
2018-09-21T04:26:09.879Z,20.70
2018-09-21T04:28:38.705Z,20.80
2018-09-21T04:31:07.577Z,20.80
2018-09-21T04:33:36.497Z,20.80
2018-09-21T04:36:05.402Z,20.60
2018-09-21T04:38:34.380Z,20.50
2018-09-21T04:41:03.241Z,20.60
2018-09-21T04:43:32.244Z,20.60
2018-09-21T04:46:01.462Z,20.60
2018-09-21T04:48:30.260Z,20.50
2018-09-21T04:50:59.155Z,20.70
2018-09-21T04:53:28.728Z,20.70
2018-09-21T04:55:57.786Z,20.50
2018-09-21T04:58:26.649Z,20.50
2018-09-21T05:00:55.515Z,20.60
2018-09-21T05:03:24.366Z,20.40
2018-09-21T05:05:53.365Z,20.40
2018-09-21T05:08:22.255Z,20.50
2018-09-21T05:10:51.117Z,20.40
2018-09-21T05:13:19.997Z,20.50
2018-09-21T05:15:49.060Z,20.40
2018-09-21T05:18:17.942Z,20.50
2018-09-21T05:20:46.911Z,20.40
2018-09-21T05:23:15.776Z,20.50
2018-09-21T05:25:44.710Z,20.50
2018-09-21T05:28:14.542Z,20.60
2018-09-21T05:30:43.409Z,20.50
2018-09-21T05:33:12.250Z,20.70
2018-09-21T05:35:41.113Z,20.50
2018-09-21T05:38:10.003Z,20.40
2018-09-21T05:40:39.039Z,20.40
2018-09-21T05:43:07.965Z,20.50
2018-09-21T05:45:36.816Z,20.70
2018-09-21T05:48:05.650Z,20.80
2018-09-21T05:50:34.513Z,20.70
2018-09-21T05:53:03.373Z,20.80
2018-09-21T05:55:32.198Z,20.80
2018-09-21T05:58:01.033Z,20.80
2018-09-21T06:00:29.946Z,20.70
2018-09-21T06:02:58.945Z,20.70
2018-09-21T06:05:27.747Z,21.00
2018-09-21T06:07:56.580Z,20.90
2018-09-21T06:10:25.479Z,21.00
2018-09-21T06:12:54.332Z,20.90
2018-09-21T06:15:23.219Z,20.90
2018-09-21T06:17:52.060Z,21.00
2018-09-21T06:20:20.897Z,21.20
2018-09-21T06:22:49.829Z,21.10
2018-09-21T06:25:18.641Z,21.00
2018-09-21T06:27:47.528Z,21.10
2018-09-21T06:30:16.423Z,21.40
2018-09-21T06:32:45.377Z,21.50
2018-09-21T06:35:14.246Z,21.70
2018-09-21T06:37:43.107Z,21.50
2018-09-21T06:40:12.016Z,21.50
2018-09-21T06:42:40.961Z,21.30
2018-09-21T06:45:09.797Z,21.60
2018-09-21T06:47:38.677Z,21.60
2018-09-21T06:50:07.621Z,21.80
2018-09-21T06:52:36.520Z,21.80
2018-09-21T06:55:05.642Z,21.50
2018-09-21T06:57:34.510Z,21.70
2018-09-21T07:00:03.439Z,21.50
2018-09-21T07:02:32.352Z,21.60
2018-09-21T07:05:06.425Z,21.50
2018-09-21T07:07:35.457Z,21.50
2018-09-21T07:10:04.842Z,21.60
2018-09-21T07:12:33.636Z,21.60
2018-09-21T07:15:02.633Z,21.60
2018-09-21T07:17:31.536Z,21.40
2018-09-21T07:20:00.520Z,21.40
2018-09-21T07:22:29.406Z,21.60
2018-09-21T07:24:58.244Z,21.60
2018-09-21T07:27:27.242Z,21.50
2018-09-21T07:29:56.069Z,21.50
2018-09-21T07:32:25.068Z,21.60
2018-09-21T07:34:54.489Z,21.40
2018-09-21T07:37:23.434Z,21.40
2018-09-21T07:39:52.257Z,21.40
2018-09-21T07:42:21.262Z,21.40
2018-09-21T07:44:50.225Z,21.40
2018-09-21T07:47:19.083Z,21.50
2018-09-21T07:49:47.949Z,21.40
2018-09-21T07:52:16.785Z,21.40
2018-09-21T07:54:45.639Z,21.60
2018-09-21T07:57:14.489Z,21.70
2018-09-21T07:59:43.326Z,21.80
2018-09-21T08:02:12.161Z,21.70
2018-09-21T08:04:41.072Z,21.70
2018-09-21T08:07:10.048Z,21.80
2018-09-21T08:09:38.924Z,21.90
2018-09-21T08:12:07.763Z,22.10
2018-09-21T08:14:36.680Z,22.10
2018-09-21T08:17:05.896Z,22.10
2018-09-21T08:19:34.799Z,22.10
2018-09-21T08:22:03.557Z,22.00
2018-09-21T08:24:32.445Z,22.10
2018-09-21T08:27:01.327Z,22.20
2018-09-21T08:29:30.182Z,22.30
2018-09-21T08:31:59.058Z,22.30
2018-09-21T08:34:27.925Z,22.40
2018-09-21T08:36:56.751Z,22.50
2018-09-21T08:39:26.700Z,22.70
2018-09-21T08:41:55.692Z,23.00
2018-09-21T08:44:24.600Z,23.00
2018-09-21T08:46:53.468Z,23.10
2018-09-21T08:49:22.304Z,23.40
2018-09-21T08:51:51.186Z,23.50
2018-09-21T08:54:20.027Z,23.60
2018-09-21T08:56:48.930Z,23.70
2018-09-21T08:59:17.797Z,23.90
2018-09-21T09:01:46.644Z,24.00
2018-09-21T09:04:15.517Z,24.10
2018-09-21T09:06:44.383Z,24.20
2018-09-21T09:09:13.299Z,24.20
2018-09-21T09:11:42.302Z,24.40
2018-09-21T09:14:23.681Z,24.50
2018-09-21T14:11:29.737Z,21.20
2018-09-21T14:13:58.645Z,21.00
